createdAt,value
2023-01-18T00:01:49.600Z,98124.66
2023-01-18T00:05:56.943Z,98116.38
2023-01-18T00:10:02.081Z,98122.00
2023-01-18T00:14:06.318Z,98124.56
2023-01-18T00:18:10.875Z,98120.19
2023-01-18T00:22:14.344Z,98119.47
2023-01-18T00:26:20.627Z,98121.41
2023-01-18T00:30:25.894Z,98123.28
2023-01-18T00:34:28.936Z,98126.78
2023-01-18T00:38:32.087Z,98132.97
2023-01-18T00:42:53.749Z,98137.22
2023-01-18T00:46:57.088Z,98135.19
2023-01-18T00:51:00.112Z,98138.97
2023-01-18T00:55:04.035Z,98133.47
2023-01-18T00:59:08.478Z,98133.09
2023-01-18T01:03:13.023Z,98144.25
2023-01-18T01:07:15.030Z,98147.63
2023-01-18T01:11:18.047Z,98142.00
2023-01-18T01:15:39.744Z,98151.81
2023-01-18T01:20:00.424Z,98154.84
2023-01-18T01:24:21.167Z,98154.84
2023-01-18T01:28:24.267Z,98160.56
2023-01-18T01:32:28.625Z,98166.19
2023-01-18T01:36:31.619Z,98169.22
2023-01-18T01:40:34.663Z,98169.03
2023-01-18T01:44:46.914Z,98174.75
2023-01-18T01:48:55.649Z,98173.94
2023-01-18T01:52:59.457Z,98176.31
2023-01-18T01:57:06.357Z,98182.88
2023-01-18T02:01:10.170Z,98183.25
2023-01-18T02:05:18.151Z,98191.44
2023-01-18T02:09:23.379Z,98190.25
2023-01-18T02:13:27.193Z,98194.84
2023-01-18T02:17:45.127Z,98193.47
2023-01-18T02:21:59.146Z,98183.59
2023-01-18T02:26:42.983Z,98180.56
2023-01-18T02:30:54.015Z,98184.63
2023-01-18T02:35:04.902Z,98181.75
2023-01-18T02:39:23.533Z,98196.31
2023-01-18T02:43:45.345Z,98194.28
2023-01-18T02:47:50.095Z,98202.84
2023-01-18T02:52:01.852Z,98211.66
2023-01-18T02:56:09.792Z,98208.09
2023-01-18T03:00:19.164Z,98205.00
2023-01-18T03:04:28.467Z,98213.19
2023-01-18T03:08:36.899Z,98215.88
2023-01-18T03:12:47.724Z,98207.84
2023-01-18T03:16:59.979Z,98218.47
2023-01-18T03:21:08.463Z,98230.44
2023-01-18T03:25:14.869Z,98228.13
2023-01-18T03:29:39.036Z,98230.44
2023-01-18T03:33:49.425Z,98226.25
2023-01-18T03:37:57.198Z,98238.63
2023-01-18T03:42:05.105Z,98244.53
2023-01-18T03:46:09.095Z,98238.88
2023-01-18T03:50:12.117Z,98239.25
2023-01-18T03:54:24.977Z,98242.13
2023-01-18T03:58:35.111Z,98243.44
2023-01-18T04:02:38.414Z,98254.28
2023-01-18T04:06:42.535Z,98250.31
2023-01-18T04:10:46.929Z,98261.78
2023-01-18T04:14:49.919Z,98252.56
2023-01-18T04:18:53.287Z,98252.19
2023-01-18T04:22:56.692Z,98268.81
2023-01-18T04:27:01.250Z,98272.69
2023-01-18T04:31:04.305Z,98273.63
2023-01-18T04:35:08.188Z,98282.09
2023-01-18T04:39:13.880Z,98277.94
2023-01-18T04:43:18.568Z,98287.56
2023-01-18T04:47:21.581Z,98287.56
2023-01-18T04:51:24.866Z,98291.50
2023-01-18T04:55:27.905Z,98293.56
2023-01-18T04:59:32.267Z,98292.91
2023-01-18T05:03:38.321Z,98298.91
2023-01-18T05:07:41.534Z,98310.44
2023-01-18T05:11:44.595Z,98311.47
2023-01-18T05:15:49.038Z,98318.75
2023-01-18T05:19:54.256Z,98332.16
2023-01-18T05:23:57.306Z,98329.25
2023-01-18T05:28:00.316Z,98335.34
2023-01-18T05:32:06.510Z,98338.13
2023-01-18T05:36:09.882Z,98343.66
2023-01-18T05:40:14.301Z,98349.00
2023-01-18T05:44:17.694Z,98353.34
2023-01-18T05:48:22.677Z,98348.47
2023-01-18T05:52:25.712Z,98369.97
2023-01-18T05:56:29.102Z,98375.97
2023-01-18T06:00:32.364Z,98379.03
2023-01-18T06:04:36.948Z,98373.66
2023-01-18T06:08:40.235Z,98380.31
2023-01-18T06:12:43.622Z,98378.19
2023-01-18T06:16:46.748Z,98384.69
2023-01-18T06:20:54.011Z,98392.50
2023-01-18T06:24:57.131Z,98396.69
2023-01-18T06:29:00.198Z,98402.56
2023-01-18T06:33:06.873Z,98409.97
2023-01-18T06:37:11.420Z,98412.25
2023-01-18T06:41:16.030Z,98415.75
2023-01-18T06:45:22.062Z,98412.63
2023-01-18T06:49:25.083Z,98425.75
2023-01-18T06:53:30.640Z,98430.75
2023-01-18T06:57:33.764Z,98439.53
2023-01-18T07:01:36.961Z,98437.41
2023-01-18T07:05:40.229Z,98448.41
2023-01-18T07:09:51.851Z,98437.09
2023-01-18T07:14:14.000Z,98456.81
2023-01-18T07:18:17.452Z,98465.50
2023-01-18T07:22:20.853Z,98466.50
2023-01-18T07:26:26.086Z,98484.91
2023-01-18T07:30:30.374Z,98477.69
2023-01-18T07:34:33.489Z,98488.69
2023-01-18T07:38:37.115Z,98497.66
2023-01-18T07:42:41.560Z,98502.72
2023-01-18T07:46:45.011Z,98511.22
2023-01-18T07:50:54.927Z,98502.91
2023-01-18T07:54:58.046Z,98499.66
2023-01-18T07:59:02.551Z,98521.66
2023-01-18T08:03:06.089Z,98513.59
2023-01-18T08:07:09.403Z,98527.56
2023-01-18T08:11:13.350Z,98521.66
2023-01-18T08:15:18.347Z,98518.03
2023-01-18T08:19:21.705Z,98532.34
2023-01-18T08:23:24.891Z,98539.06
2023-01-18T08:27:28.247Z,98547.53
2023-01-18T08:31:32.711Z,98548.22
2023-01-18T08:35:40.453Z,98561.56
2023-01-18T08:39:43.691Z,98567.13
2023-01-18T08:44:05.628Z,98565.28
2023-01-18T08:48:28.697Z,98564.88
2023-01-18T08:52:52.576Z,98565.47
2023-01-18T08:57:14.074Z,98562.75
2023-01-18T09:01:35.751Z,98568.53
2023-01-18T09:05:40.444Z,98573.72
2023-01-18T09:10:02.016Z,98578.53
2023-01-18T09:14:23.484Z,98582.03
2023-01-18T09:18:45.186Z,98590.91
2023-01-18T09:23:09.794Z,98590.75
2023-01-18T09:27:31.589Z,98588.84
2023-01-18T09:31:54.051Z,98593.91
2023-01-18T09:35:57.976Z,98596.94
2023-01-18T09:40:02.481Z,98598.19
2023-01-18T09:44:10.764Z,98613.66
2023-01-18T09:48:25.238Z,98606.09
2023-01-18T09:52:46.657Z,98607.53
2023-01-18T09:56:58.619Z,98612.59
2023-01-18T10:01:06.122Z,98614.53
2023-01-18T10:05:15.050Z,98607.31
2023-01-18T10:09:21.711Z,98613.09
2023-01-18T10:13:38.020Z,98623.03
2023-01-18T10:17:43.576Z,98618.72
2023-01-18T10:21:55.560Z,98604.94
2023-01-18T10:26:03.347Z,98606.66
2023-01-18T10:30:39.775Z,98625.72
2023-01-18T10:34:46.502Z,98625.69
2023-01-18T10:38:52.912Z,98625.31
2023-01-18T10:42:59.877Z,98619.97
2023-01-18T10:47:04.707Z,98618.13
2023-01-18T10:51:08.956Z,98619.94
2023-01-18T10:55:17.503Z,98623.38
2023-01-18T10:59:26.721Z,98632.84
2023-01-18T11:03:36.011Z,98635.69
2023-01-18T11:07:39.684Z,98641.91
2023-01-18T11:12:00.333Z,98648.09
2023-01-18T11:16:17.704Z,98634.03
2023-01-18T11:20:26.036Z,98641.63
2023-01-18T11:24:31.285Z,98633.41
2023-01-18T11:28:40.530Z,98639.00
2023-01-18T11:32:43.615Z,98639.50
2023-01-18T11:36:48.123Z,98643.22
2023-01-18T11:41:03.442Z,98642.44
2023-01-18T11:45:16.719Z,98644.94
2023-01-18T11:49:35.345Z,98641.44
2023-01-18T11:53:50.042Z,98641.91
2023-01-18T11:57:54.505Z,98638.66
2023-01-18T12:02:38.631Z,98634.22
2023-01-18T12:06:51.235Z,98641.88
2023-01-18T12:11:10.679Z,98646.47
2023-01-18T12:15:38.879Z,98647.22
2023-01-18T12:20:01.624Z,98643.09
2023-01-18T12:24:28.414Z,98656.16
2023-01-18T12:28:43.986Z,98649.44
2023-01-18T12:33:13.262Z,98652.53
2023-01-18T12:37:34.217Z,98657.16
2023-01-18T12:41:49.994Z,98663.25
2023-01-18T12:46:02.961Z,98667.44
2023-01-18T12:50:17.006Z,98676.78
2023-01-18T12:54:27.879Z,98668.22
2023-01-18T12:58:32.590Z,98671.78
2023-01-18T13:02:41.704Z,98686.53
2023-01-18T13:06:46.758Z,98675.13
2023-01-18T13:10:50.183Z,98674.47
2023-01-18T13:15:01.804Z,98673.56
2023-01-18T13:19:09.989Z,98672.75
2023-01-18T13:23:28.675Z,98678.09
2023-01-18T13:27:33.357Z,98668.84
2023-01-18T13:31:37.200Z,98686.19
2023-01-18T13:35:51.489Z,98691.53
2023-01-18T13:39:54.613Z,98692.03
2023-01-18T13:44:06.601Z,98693.56
2023-01-18T13:48:41.525Z,98696.16
2023-01-18T13:52:45.912Z,98695.34
2023-01-18T13:57:17.424Z,98702.22
2023-01-18T14:01:23.247Z,98713.09
2023-01-18T14:05:29.473Z,98718.81
2023-01-18T14:09:41.211Z,98724.00
2023-01-18T14:14:26.236Z,98724.38
2023-01-18T14:18:31.427Z,98736.22
2023-01-18T14:22:46.785Z,98740.94
2023-01-18T14:26:55.265Z,98735.34
2023-01-18T14:31:00.693Z,98736.31
2023-01-18T14:35:06.791Z,98737.66
2023-01-18T14:39:13.727Z,98742.44
2023-01-18T14:43:24.128Z,98749.38
2023-01-18T14:47:30.951Z,98754.66
2023-01-18T14:51:34.064Z,98752.28
2023-01-18T14:55:37.110Z,98758.34
2023-01-18T14:59:51.822Z,98768.22
2023-01-18T15:03:56.135Z,98776.84
2023-01-18T15:08:00.371Z,98780.94
2023-01-18T15:12:06.559Z,98778.28
2023-01-18T15:16:11.113Z,98781.28
2023-01-18T15:20:15.922Z,98777.03
2023-01-18T15:24:21.957Z,98770.00
2023-01-18T15:28:31.610Z,98779.31
2023-01-18T15:32:37.617Z,98780.34
2023-01-18T15:36:40.812Z,98790.00
2023-01-18T15:40:55.484Z,98796.66
2023-01-18T15:45:00.263Z,98796.31
2023-01-18T15:49:05.659Z,98798.81
2023-01-18T15:53:12.137Z,98811.06
2023-01-18T15:57:21.042Z,98819.56
2023-01-18T16:01:31.998Z,98820.38
2023-01-18T16:05:37.143Z,98825.75
2023-01-18T16:09:41.313Z,98823.63
2023-01-18T16:13:45.645Z,98844.81
2023-01-18T16:17:48.989Z,98841.88
2023-01-18T16:21:58.711Z,98840.22
2023-01-18T16:26:05.991Z,98837.31
2023-01-18T16:30:19.819Z,98841.66
2023-01-18T16:34:27.962Z,98858.03
2023-01-18T16:38:39.095Z,98859.63
2023-01-18T16:42:58.724Z,98865.41
2023-01-18T16:47:01.815Z,98864.94
2023-01-18T16:51:13.069Z,98874.88
2023-01-18T16:55:19.151Z,98887.22
2023-01-18T16:59:23.297Z,98884.53
2023-01-18T17:03:28.409Z,98879.19
2023-01-18T17:07:31.970Z,98878.97
2023-01-18T17:11:36.979Z,98882.72
2023-01-18T17:15:42.582Z,98897.63
2023-01-18T17:19:46.807Z,98897.22
2023-01-18T17:23:50.887Z,98899.53
2023-01-18T17:27:56.668Z,98894.78
2023-01-18T17:31:59.690Z,98892.72
2023-01-18T17:40:19.608Z,98903.81
2023-01-18T17:44:36.490Z,98913.72
2023-01-18T17:48:40.330Z,98925.53
2023-01-18T17:52:43.673Z,98922.59
2023-01-18T17:56:46.747Z,98928.47
2023-01-18T18:00:51.499Z,98935.81
2023-01-18T18:04:54.645Z,98936.00
2023-01-18T18:08:57.748Z,98932.25
2023-01-18T18:13:01.160Z,98937.16
2023-01-18T18:17:07.156Z,98937.63
2023-01-18T18:21:11.040Z,98939.56
2023-01-18T18:25:14.330Z,98946.84
2023-01-18T18:29:17.675Z,98955.09
2023-01-18T18:33:22.981Z,98959.31
2023-01-18T18:37:26.051Z,98959.50
2023-01-18T18:41:29.403Z,98966.75
2023-01-18T18:45:32.981Z,98971.38
2023-01-18T18:49:37.614Z,98987.53
2023-01-18T18:53:41.220Z,98979.31
2023-01-18T18:57:45.350Z,98987.16
2023-01-18T19:01:51.804Z,98989.28
2023-01-18T19:05:57.074Z,98992.25
2023-01-18T19:10:00.984Z,99007.66
2023-01-18T19:14:06.142Z,99011.75
2023-01-18T19:18:09.685Z,99010.44
2023-01-18T19:22:14.075Z,99010.56
2023-01-18T19:26:18.307Z,99023.19
2023-01-18T19:30:21.806Z,99021.97
2023-01-18T19:34:25.024Z,99019.41
2023-01-18T19:38:29.493Z,99027.03
2023-01-18T19:42:32.651Z,99037.59
2023-01-18T19:46:35.875Z,99043.63
2023-01-18T19:50:38.964Z,99051.56
2023-01-18T19:54:43.479Z,99067.75
2023-01-18T19:58:46.859Z,99052.06
2023-01-18T20:02:50.069Z,99062.22
2023-01-18T20:06:53.358Z,99072.13
2023-01-18T20:11:04.801Z,99079.00
2023-01-18T20:15:08.566Z,99079.63
2023-01-18T20:19:13.117Z,99079.50
2023-01-18T20:23:16.203Z,99088.38
2023-01-18T20:27:20.892Z,99092.53
2023-01-18T20:31:24.019Z,99101.13
2023-01-18T20:35:27.556Z,99102.81
2023-01-18T20:39:30.942Z,99105.75
2023-01-18T20:43:35.338Z,99100.81
2023-01-18T20:47:38.542Z,99098.94
2023-01-18T20:51:41.739Z,99105.38
2023-01-18T20:55:45.011Z,99104.56
2023-01-18T20:59:49.544Z,99100.63
2023-01-18T21:03:55.120Z,99113.84
2023-01-18T21:07:58.630Z,99119.72
2023-01-18T21:12:01.979Z,99116.16
2023-01-18T21:16:07.104Z,99117.19
2023-01-18T21:20:11.743Z,99117.72
2023-01-18T21:24:14.882Z,99126.31
2023-01-18T21:28:18.037Z,99118.03
2023-01-18T21:32:23.730Z,99125.53
2023-01-18T21:36:27.116Z,99127.22
2023-01-18T21:40:30.378Z,99126.31
2023-01-18T21:44:59.567Z,99134.13
2023-01-18T21:49:04.752Z,99134.53
2023-01-18T21:53:31.609Z,99133.63
2023-01-18T21:57:35.116Z,99155.59
2023-01-18T22:01:40.552Z,99158.09
2023-01-18T22:05:45.092Z,99155.59
2023-01-18T22:10:02.878Z,99167.59
2023-01-18T22:14:08.635Z,99169.97
2023-01-18T22:18:11.702Z,99164.72
2023-01-18T22:22:16.442Z,99173.03
2023-01-18T22:26:20.358Z,99175.50
2023-01-18T22:30:23.428Z,99186.84
2023-01-18T22:34:27.388Z,99205.16
2023-01-18T22:38:33.028Z,99211.38
2023-01-18T22:42:37.269Z,99202.91
2023-01-18T22:46:41.474Z,99202.31
2023-01-18T22:50:52.539Z,99210.41
2023-01-18T22:54:59.018Z,99206.56
2023-01-18T22:59:03.230Z,99208.13
2023-01-18T23:03:07.758Z,99199.03
2023-01-18T23:07:14.663Z,99223.50
2023-01-18T23:11:23.333Z,99227.22
2023-01-18T23:15:44.816Z,99220.78
2023-01-18T23:19:49.850Z,99232.97
2023-01-18T23:23:54.427Z,99225.91
2023-01-18T23:28:05.461Z,99225.44
2023-01-18T23:32:09.869Z,99230.19
2023-01-18T23:36:14.505Z,99216.59
2023-01-18T23:40:37.026Z,99220.69
2023-01-18T23:44:59.559Z,99219.41
2023-01-18T23:49:21.376Z,99220.31
2023-01-18T23:53:43.019Z,99230.19
2023-01-18T23:57:47.761Z,99233.44
